createdAt,value
2022-11-16T00:03:55.959Z,15.13
2022-11-16T00:09:18.651Z,11.23
2022-11-16T00:14:21.571Z,15.95
2022-11-16T00:19:24.255Z,16.88
2022-11-16T00:24:25.912Z,13.60
2022-11-16T00:29:27.742Z,18.00
2022-11-16T00:34:29.495Z,16.85
2022-11-16T00:39:31.250Z,19.58
2022-11-16T00:44:32.986Z,15.25
2022-11-16T00:49:34.667Z,15.88
2022-11-16T00:54:36.329Z,31.23
2022-11-16T00:59:37.952Z,20.48
2022-11-16T01:04:39.612Z,18.67
2022-11-16T01:09:41.249Z,20.05
2022-11-16T01:14:45.257Z,19.20
2022-11-16T01:19:46.888Z,19.80
2022-11-16T01:24:48.535Z,55.42
2022-11-16T01:29:50.182Z,44.28
2022-11-16T01:34:52.180Z,19.23
2022-11-16T01:39:54.223Z,21.05
2022-11-16T01:45:15.224Z,20.05
2022-11-16T01:50:18.407Z,24.55
2022-11-16T01:55:21.760Z,20.30
2022-11-16T02:00:23.598Z,14.57
2022-11-16T02:05:59.639Z,12.90
2022-11-16T02:11:01.238Z,13.48
2022-11-16T02:16:39.392Z,20.75
2022-11-16T02:21:52.154Z,14.20
2022-11-16T02:26:56.631Z,34.60
2022-11-16T02:32:15.222Z,41.00
2022-11-16T02:37:20.638Z,37.67
2022-11-16T02:42:29.938Z,26.75
2022-11-16T02:47:34.655Z,21.58
2022-11-16T02:52:37.820Z,23.08
2022-11-16T02:57:46.062Z,38.58
2022-11-16T03:03:10.224Z,58.85
2022-11-16T03:08:33.406Z,144.00
2022-11-16T03:13:37.414Z,27.73
2022-11-16T03:18:40.831Z,46.47
2022-11-16T03:23:43.984Z,33.15
2022-11-16T03:29:05.807Z,191.93
2022-11-16T03:34:16.270Z,77.63
2022-11-16T03:39:24.161Z,23.25
2022-11-16T03:44:26.975Z,37.05
2022-11-16T03:49:31.187Z,46.05
2022-11-16T03:54:32.794Z,33.30
2022-11-16T03:59:34.422Z,58.78
2022-11-16T04:04:54.538Z,63.05
2022-11-16T04:10:14.705Z,281.55
2022-11-16T04:15:34.794Z,384.75
2022-11-16T04:20:55.279Z,77.45
2022-11-16T04:25:57.640Z,52.73
2022-11-16T04:31:20.818Z,76.43
2022-11-16T04:36:41.570Z,73.43
2022-11-16T04:42:01.809Z,1496.65
2022-11-16T04:47:06.746Z,1383.40
2022-11-16T04:52:09.001Z,1020.95
2022-11-16T04:57:10.703Z,209.60
2022-11-16T05:02:13.235Z,233.48
2022-11-16T05:07:24.320Z,62.78
2022-11-16T05:12:31.947Z,29.25
2022-11-16T05:17:41.015Z,51.60
2022-11-16T05:22:42.800Z,150.65
2022-11-16T05:27:44.455Z,112.95
2022-11-16T05:32:48.292Z,99.68
2022-11-16T05:37:50.021Z,81.85
2022-11-16T05:42:51.662Z,47.05
2022-11-16T05:47:55.412Z,68.55
2022-11-16T05:52:57.031Z,53.22
2022-11-16T05:57:59.790Z,61.75
2022-11-16T06:03:01.538Z,1242.07
2022-11-16T06:08:05.752Z,1014.90
2022-11-16T06:13:08.503Z,21.02
2022-11-16T06:18:15.206Z,13.00
2022-11-16T06:23:19.146Z,11.95
2022-11-16T06:28:28.196Z,12.90
2022-11-16T06:33:33.509Z,8.88
2022-11-16T06:38:41.073Z,10.73
2022-11-16T06:43:43.836Z,11.43
2022-11-16T06:48:45.601Z,12.55
2022-11-16T06:53:49.312Z,11.15
2022-11-16T06:58:53.549Z,12.05
2022-11-16T07:03:57.201Z,11.05
2022-11-16T07:09:09.744Z,7.78
2022-11-16T07:14:12.540Z,10.32
2022-11-16T07:19:15.537Z,12.80
2022-11-16T07:24:28.377Z,9.07
2022-11-16T07:29:32.192Z,8.18
2022-11-16T07:34:33.936Z,9.05
2022-11-16T07:39:35.734Z,13.95
2022-11-16T07:44:44.508Z,7.63
2022-11-16T07:49:48.996Z,10.55
2022-11-16T07:54:51.349Z,8.63
2022-11-16T07:59:58.320Z,8.52
2022-11-16T08:05:02.145Z,8.60
2022-11-16T08:10:10.080Z,9.07
2022-11-16T08:15:23.456Z,10.07
2022-11-16T08:20:25.474Z,10.00
2022-11-16T08:25:30.356Z,12.55
2022-11-16T08:30:38.645Z,12.15
2022-11-16T08:35:40.531Z,12.23
2022-11-16T08:40:42.454Z,10.52
2022-11-16T08:45:49.576Z,5.00
2022-11-16T08:51:16.077Z,10.35
2022-11-16T08:56:14.612Z,11.90
2022-11-16T09:01:23.436Z,10.50
2022-11-16T09:06:27.015Z,9.65
2022-11-16T09:11:30.012Z,9.18
2022-11-16T09:16:40.494Z,10.55
2022-11-16T09:21:50.523Z,12.23
2022-11-16T09:26:57.559Z,8.20
2022-11-16T09:31:59.451Z,7.22
2022-11-16T09:37:01.789Z,10.05
2022-11-16T09:42:25.645Z,8.60
2022-11-16T09:47:49.157Z,14.43
2022-11-16T09:52:56.462Z,12.32
2022-11-16T09:58:03.222Z,8.57
2022-11-16T10:03:12.390Z,12.25
2022-11-16T10:08:23.152Z,10.88
2022-11-16T10:14:06.144Z,15.65
2022-11-16T10:19:30.801Z,10.40
2022-11-16T10:24:57.826Z,12.73
2022-11-16T10:30:08.862Z,10.98
2022-11-16T10:42:11.808Z,11.82
2022-11-16T10:47:34.028Z,11.75
2022-11-16T10:52:37.373Z,9.98
2022-11-16T10:58:05.245Z,12.68
2022-11-16T11:03:12.363Z,11.27
2022-11-16T11:08:26.054Z,11.52
2022-11-16T11:13:28.011Z,11.45
2022-11-16T11:18:30.202Z,13.07
2022-11-16T11:24:10.560Z,9.10
2022-11-16T11:29:32.459Z,16.40
2022-11-16T11:34:44.897Z,7.70
2022-11-16T11:39:48.391Z,10.95
2022-11-16T11:44:59.331Z,14.23
2022-11-16T11:50:40.454Z,13.13
2022-11-16T11:55:42.385Z,10.80
2022-11-16T12:01:25.484Z,15.30
2022-11-16T12:06:45.021Z,14.00
2022-11-16T12:12:11.817Z,11.23
2022-11-16T12:24:00.434Z,10.45
2022-11-16T12:29:22.031Z,10.30
2022-11-16T12:34:44.085Z,11.80
2022-11-16T12:40:04.539Z,9.68
2022-11-16T12:45:31.986Z,14.88
2022-11-16T12:51:19.752Z,10.93
2022-11-16T12:56:44.560Z,10.48
2022-11-16T13:02:00.599Z,10.32
2022-11-16T13:07:17.128Z,11.40
2022-11-16T13:12:26.656Z,10.02
2022-11-16T13:17:37.136Z,14.65
2022-11-16T13:22:44.988Z,11.10
2022-11-16T13:28:06.189Z,15.27
2022-11-16T13:33:36.199Z,6.38
2022-11-16T13:38:52.737Z,7.50
2022-11-16T13:43:55.133Z,7.32
2022-11-16T13:48:56.860Z,11.38
2022-11-16T13:59:28.364Z,7.47
2022-11-16T14:04:38.898Z,8.53
2022-11-16T14:09:47.472Z,7.40
2022-11-16T14:15:15.073Z,8.05
2022-11-16T14:20:34.909Z,8.95
2022-11-16T14:25:42.698Z,9.73
2022-11-16T14:31:05.813Z,12.00
2022-11-16T14:36:09.753Z,11.93
2022-11-16T14:41:22.895Z,8.85
2022-11-16T14:46:36.307Z,11.55
2022-11-16T14:51:44.836Z,10.10
2022-11-16T14:57:00.287Z,12.00
2022-11-16T15:02:15.122Z,10.88
2022-11-16T15:07:18.474Z,15.38
2022-11-16T15:12:42.546Z,10.20
2022-11-16T15:18:07.702Z,9.38
2022-11-16T15:23:14.801Z,14.45
2022-11-16T15:28:20.677Z,18.00
2022-11-16T15:33:29.715Z,12.27
2022-11-16T15:38:32.926Z,8.40
2022-11-16T15:43:45.424Z,9.52
2022-11-16T15:48:52.558Z,7.68
2022-11-16T15:53:55.323Z,12.40
2022-11-16T15:59:01.381Z,9.95
2022-11-16T16:04:06.534Z,15.80
2022-11-16T16:09:18.385Z,10.20
2022-11-16T16:14:30.798Z,9.80
2022-11-16T16:19:42.629Z,13.30
2022-11-16T16:24:46.649Z,9.02
2022-11-16T16:29:50.069Z,10.23
2022-11-16T16:34:55.606Z,10.98
2022-11-16T16:39:58.480Z,11.75
2022-11-16T16:45:00.614Z,9.60
2022-11-16T16:50:05.870Z,8.00
2022-11-16T16:55:07.930Z,10.20
2022-11-16T17:00:17.968Z,10.65
2022-11-16T17:05:21.646Z,10.23
2022-11-16T17:10:25.519Z,12.25
2022-11-16T17:15:30.231Z,13.95
2022-11-16T17:20:33.063Z,13.65
2022-11-16T17:25:37.402Z,9.98
2022-11-16T17:30:42.280Z,14.07
2022-11-16T17:35:43.989Z,11.07
2022-11-16T17:40:46.685Z,8.43
2022-11-16T17:45:50.405Z,11.88
2022-11-16T17:50:57.242Z,15.85
2022-11-16T17:55:58.983Z,13.20
2022-11-16T18:01:00.842Z,13.38
2022-11-16T18:06:07.434Z,18.00
2022-11-16T18:11:31.988Z,13.38
2022-11-16T18:16:34.169Z,19.13
2022-11-16T18:21:42.183Z,14.93
2022-11-16T18:26:45.160Z,17.13
2022-11-16T18:31:49.947Z,15.70
2022-11-16T18:36:51.614Z,15.52
2022-11-16T18:41:54.985Z,19.48
2022-11-16T18:46:57.400Z,17.77
2022-11-16T18:51:59.084Z,16.65
2022-11-16T18:57:02.906Z,18.23
2022-11-16T19:02:07.244Z,17.02
2022-11-16T19:07:09.136Z,16.55
2022-11-16T19:12:10.842Z,16.95
2022-11-16T19:17:12.499Z,16.65
2022-11-16T19:22:15.202Z,17.40
2022-11-16T19:27:23.391Z,20.77
2022-11-16T19:32:26.084Z,17.40
2022-11-16T19:37:35.903Z,21.45
2022-11-16T19:42:40.722Z,18.15
2022-11-16T19:47:45.344Z,23.63
2022-11-16T19:52:57.242Z,18.55
2022-11-16T19:57:58.872Z,23.88
2022-11-16T20:03:00.622Z,22.58
2022-11-16T20:08:02.260Z,20.90
2022-11-16T20:13:04.039Z,20.77
2022-11-16T20:18:05.902Z,23.75
2022-11-16T20:23:07.543Z,22.15
2022-11-16T20:28:09.656Z,24.15
2022-11-16T20:33:11.368Z,23.38
2022-11-16T20:38:13.001Z,20.77
2022-11-16T20:43:14.803Z,22.67
2022-11-16T20:48:16.417Z,21.02
2022-11-16T20:53:18.063Z,19.92
2022-11-16T20:58:23.047Z,32.95
2022-11-16T21:03:24.811Z,21.80
2022-11-16T21:08:27.467Z,19.75
2022-11-16T21:13:47.822Z,22.85
2022-11-16T21:18:49.932Z,24.58
2022-11-16T21:23:51.945Z,31.73
2022-11-16T21:28:54.502Z,32.45
2022-11-16T21:33:56.985Z,29.00
2022-11-16T21:38:59.195Z,21.60
2022-11-16T21:44:00.797Z,30.30
2022-11-16T21:49:02.524Z,23.70
2022-11-16T21:54:04.747Z,27.88
2022-11-16T21:59:06.895Z,27.40
2022-11-16T22:04:27.061Z,20.52
2022-11-16T22:09:28.684Z,21.75
2022-11-16T22:14:30.358Z,21.13
2022-11-16T22:19:31.984Z,24.50
2022-11-16T22:24:33.620Z,21.73
2022-11-16T22:29:35.294Z,21.88
2022-11-16T22:34:37.030Z,20.45
2022-11-16T22:39:38.663Z,23.00
2022-11-16T22:44:40.306Z,21.27
2022-11-16T22:49:41.935Z,21.67
2022-11-16T22:54:43.565Z,15.77
2022-11-16T22:59:45.350Z,16.23
2022-11-16T23:04:46.964Z,12.93
2022-11-16T23:09:48.587Z,13.75
2022-11-16T23:15:08.856Z,13.98
2022-11-16T23:20:29.184Z,8.77
2022-11-16T23:25:49.645Z,13.00
2022-11-16T23:30:51.272Z,11.13
2022-11-16T23:35:52.882Z,12.63
2022-11-16T23:40:54.483Z,12.25
2022-11-16T23:45:56.090Z,13.68
2022-11-16T23:50:57.717Z,10.57
2022-11-16T23:56:05.719Z,12.13
